Terminal Aerodrome Forecast
Issued by NWS Charleston, WV

Current Version | Previous Version | Graphics & Text | Print | Product List | Glossary On
Versions: 1 2 3 4 5 6 7 8 9 10 11 12 13 14 15 16 17 18 19 20 21 22 23 24 25 26 27 28
668
FTUS41 KRLX 261845 AAA
TAFHTS
TAF AMD
KHTS 261845Z 2619/2718 VRB03KT P6SM SHRA VCTS BKN050CB
      TEMPO 2619/2620 24020G35KT 2SM TSRA BR OVC015CB
     FM262000 21008KT P6SM VCTS OVC050CB
      TEMPO 2620/2624 4SM SHRA OVC025
     FM270300 20005KT P6SM BKN050
     FM271000 00000KT P6SM OVC040=

USA.gov is the U.S. government's official web portal to all federal, state and local government web resources and services.